Time;durP1;ratioP1;P1;durP2;ratioP2;P2;SDS_P1;SDS_P2;PMS_P1;PMS_P2;Temp;Humidity;BMP_temperature;BMP_pressure;BME280_temperature;BME280_humidity;BME280_pressure;Samples;Min_cycle;Max_cycle;Signal;HPM_P1;HPM_P2
2022/09/25 07:46:30;;;;;;;4.75;2.70;;;14.00;99.90;;;;;;6281568;22;20019;-88
2022/09/25 07:58:47;;;;;;;5.18;1.70;;;14.20;99.90;;;;;;6263989;22;20031;-86
2022/09/25 09:42:38;;;;;;;1.40;0.35;;;15.00;99.90;;;;;;6215478;22;20035;31
2022/09/25 11:06:52;;;;;;;1.23;0.43;;;15.50;99.90;;;;;;6209629;22;20055;-85
2022/09/25 12:01:42;;;;;;;1.17;0.40;;;15.80;99.90;;;;;;6213234;22;20023;31
2022/09/25 12:34:49;;;;;;;1.88;0.57;;;15.80;99.90;;;;;;6296186;22;19907;-88
2022/09/25 14:44:33;;;;;;;10.20;4.25;;;15.60;99.90;;;;;;6258756;22;20426;31
2022/09/25 14:47:22;;;;;;;17.00;5.50;;;15.70;99.90;;;;;;6064207;23;20012;-87
2022/09/25 15:17:22;;;;;;;15.85;7.18;;;15.10;99.90;;;;;;6264238;22;20019;31
2022/09/25 15:20:25;;;;;;;38.15;19.33;;;15.10;99.90;;;;;;6131286;23;20089;-87
2022/09/25 15:23:46;;;;;;;14.77;7.68;;;15.50;99.90;;;;;;6124384;23;20026;-88
2022/09/25 16:44:35;;;;;;;24.35;12.32;;;14.80;99.90;;;;;;6290707;22;20019;-86
2022/09/25 16:47:48;;;;;;;20.85;11.75;;;14.70;99.90;;;;;;6168622;23;20084;-86
2022/09/25 16:50:47;;;;;;;18.52;10.65;;;14.70;99.90;;;;;;6144111;23;20025;-86
2022/09/25 16:54:10;;;;;;;37.25;18.80;;;14.60;99.90;;;;;;6033898;23;20036;-88
2022/09/25 16:56:49;;;;;;;57.70;25.85;;;14.70;99.90;;;;;;6021859;23;20034;-85
2022/09/25 16:59:25;;;;;;;54.63;25.57;;;14.70;99.90;;;;;;6000643;23;20015;-85
2022/09/25 17:02:36;;;;;;;33.92;16.50;;;14.70;99.90;;;;;;6015680;23;20072;-86
2022/09/25 17:05:32;;;;;;;26.92;14.00;;;14.60;99.90;;;;;;5977842;24;20087;-85
2022/09/25 17:08:20;;;;;;;26.13;13.45;;;14.60;99.90;;;;;;5973216;24;20001;-86
2022/09/25 17:13:02;;;;;;;23.23;12.82;;;14.60;99.90;;;;;;5950403;23;20046;-86
2022/09/25 17:16:07;;;;;;;20.58;11.10;;;14.60;99.90;;;;;;5857867;24;20027;-85
2022/09/25 17:27:47;;;;;;;25.02;13.27;;;14.50;99.90;;;;;;6294823;22;20050;-87
2022/09/25 17:57:02;;;;;;;27.15;14.57;;;14.30;99.90;;;;;;6303579;22;20055;31
2022/09/25 17:59:32;;;;;;;27.75;14.65;;;14.30;99.90;;;;;;6203474;23;20104;-86
2022/09/25 18:09:39;;;;;;;16.58;9.32;;;14.20;99.90;;;;;;6305714;22;20014;-86
2022/09/25 18:15:55;;;;;;;15.68;8.52;;;14.20;99.90;;;;;;6277070;22;20404;-85
2022/09/25 18:25:08;;;;;;;15.23;8.82;;;14.20;99.90;;;;;;6206700;22;20027;-86
2022/09/25 18:28:00;;;;;;;15.20;8.60;;;14.30;99.90;;;;;;6262634;22;20024;-85
2022/09/25 18:31:24;;;;;;;13.95;9.18;;;14.20;99.90;;;;;;6263345;22;20023;-86
2022/09/25 18:34:17;;;;;;;15.25;9.68;;;14.20;99.90;;;;;;6206846;23;20036;-85
2022/09/25 18:37:21;;;;;;;20.23;11.15;;;14.20;99.90;;;;;;4878924;27;7217353;-85
2022/09/25 18:40:07;;;;;;;17.42;10.95;;;14.10;99.90;;;;;;5068409;28;20039;-86
2022/09/25 18:43:35;;;;;;;22.73;12.23;;;14.10;99.90;;;;;;5064542;28;20065;-86
2022/09/25 18:46:20;;;;;;;19.08;10.40;;;14.20;99.90;;;;;;5014541;28;20043;-86
2022/09/25 18:49:25;;;;;;;21.15;11.35;;;14.20;99.90;;;;;;4950719;29;20083;-85
2022/09/25 18:52:23;;;;;;;17.60;10.73;;;14.20;99.90;;;;;;4905042;29;20040;-86
2022/09/25 18:55:03;;;;;;;20.13;10.68;;;14.20;99.90;;;;;;4858555;29;20050;-83
2022/09/25 18:57:48;;;;;;;19.05;10.13;;;14.20;99.90;;;;;;4834345;29;20042;-86
2022/09/25 19:01:03;;;;;;;18.90;11.18;;;14.20;99.90;;;;;;4820189;29;20058;-86
2022/09/25 19:03:41;;;;;;;21.08;11.43;;;14.20;99.90;;;;;;4817944;29;20062;-85
2022/09/25 19:06:23;;;;;;;21.25;11.52;;;14.10;99.90;;;;;;4814401;29;20061;-84
2022/09/25 19:09:29;;;;;;;21.50;11.63;;;14.10;99.90;;;;;;4782675;30;20048;-85
2022/09/25 19:12:02;;;;;;;22.17;11.32;;;14.20;99.90;;;;;;4779527;29;20465;-85
2022/09/25 19:14:34;;;;;;;17.80;10.20;;;14.20;99.90;;;;;;4800023;29;20052;-86
2022/09/25 19:17:25;;;;;;;16.83;10.20;;;14.20;99.90;;;;;;4807512;29;20076;-85
2022/09/25 19:19:55;;;;;;;17.13;9.70;;;14.10;99.90;;;;;;4868365;29;20053;-85
2022/09/25 19:22:44;;;;;;;16.35;9.63;;;14.30;99.90;;;;;;4870855;29;20069;-85
2022/09/25 19:25:25;;;;;;;17.35;10.63;;;14.10;99.90;;;;;;4866175;29;20087;-85
2022/09/25 19:28:37;;;;;;;20.55;11.40;;;14.10;99.90;;;;;;4909517;29;20053;-85
2022/09/25 19:31:26;;;;;;;17.25;11.23;;;14.10;99.90;;;;;;4891057;29;20176;-85
2022/09/25 19:34:10;;;;;;;24.33;9.85;;;14.10;99.90;;;;;;4907536;29;20045;-85
2022/09/25 19:37:01;;;;;;;15.47;9.37;;;14.10;99.90;;;;;;4880737;29;20061;-86
2022/09/25 19:42:56;;;;;;;16.13;9.30;;;14.10;99.90;;;;;;4908208;29;20060;-87
2022/09/25 19:46:57;;;;;;;17.80;10.80;;;14.10;99.90;;;;;;4907852;29;20101;-86
2022/09/25 19:49:51;;;;;;;21.40;11.77;;;14.10;99.90;;;;;;4882876;29;20070;-85
2022/09/25 19:53:45;;;;;;;27.35;14.77;;;14.10;99.90;;;;;;4867556;29;20061;-85
2022/09/25 19:57:12;;;;;;;;;;;14.10;99.90;;;;;;5049605;28;20032;-86
2022/09/25 20:00:36;;;;;;;31.83;16.70;;;14.00;99.90;;;;;;4937385;29;19923;-85
2022/09/25 20:04:27;;;;;;;32.92;16.95;;;14.00;99.90;;;;;;4899427;29;20063;-85
2022/09/25 20:07:09;;;;;;;29.42;15.57;;;14.10;99.90;;;;;;4863417;29;20049;-85
2022/09/25 20:09:48;;;;;;;30.92;15.43;;;14.00;99.90;;;;;;4857800;29;20083;-85
2022/09/25 20:12:19;;;;;;;27.60;14.68;;;14.10;99.90;;;;;;4825029;29;20046;-85
2022/09/25 20:14:56;;;;;;;27.85;13.95;;;14.10;99.90;;;;;;4848821;29;20084;-85
2022/09/25 20:17:55;;;;;;;27.13;13.50;;;14.00;99.90;;;;;;4822987;29;20065;-85
2022/09/25 20:20:55;;;;;;;23.00;12.68;;;13.50;99.90;;;;;;4766103;30;20052;-85
2022/09/25 20:23:33;;;;;;;23.60;12.38;;;14.00;99.90;;;;;;4754795;30;20052;-86
2022/09/25 20:26:10;;;;;;;21.42;11.07;;;14.10;99.90;;;;;;4755576;30;20355;-85
2022/09/25 20:29:30;;;;;;;21.40;11.88;;;14.00;99.90;;;;;;4780963;30;20052;-86
2022/09/25 20:32:45;;;;;;;17.67;11.05;;;14.00;99.90;;;;;;4780793;30;20071;-85
2022/09/25 20:36:12;;;;;;;21.48;10.82;;;14.00;99.90;;;;;;4770694;30;20040;-85
2022/09/25 20:39:40;;;;;;;23.90;12.45;;;14.10;99.90;;;;;;4801822;29;20051;-85
2022/09/25 20:43:12;;;;;;;23.90;12.68;;;14.00;99.90;;;;;;4815822;29;20097;-86
2022/09/25 20:46:13;;;;;;;22.33;13.48;;;13.90;99.90;;;;;;4810222;29;20071;-86
2022/09/25 20:49:34;;;;;;;23.52;13.95;;;14.00;99.90;;;;;;4800367;30;20163;-84
2022/09/25 20:52:08;;;;;;;23.35;13.65;;;14.00;99.90;;;;;;4749424;29;20051;-83
2022/09/25 20:54:40;;;;;;;26.25;14.82;;;14.00;99.90;;;;;;4785244;29;20108;-85
2022/09/25 20:57:21;;;;;;;29.70;15.85;;;14.00;99.90;;;;;;4780526;29;20252;-84
2022/09/25 21:00:33;;;;;;;29.20;16.40;;;14.60;99.90;;;;;;4764165;30;20137;-84
2022/09/25 21:03:51;;;;;;;32.90;17.27;;;14.00;99.90;;;;;;4789575;30;20059;-86
2022/09/25 21:06:40;;;;;;;34.03;18.55;;;14.00;99.90;;;;;;4801681;29;20051;-86
2022/09/25 21:09:31;;;;;;;31.05;17.08;;;14.50;99.90;;;;;;4807473;29;20047;-86
2022/09/25 21:12:29;;;;;;;29.42;15.85;;;14.00;99.90;;;;;;4797167;29;20058;-85
2022/09/25 21:32:02;;;;;;;24.98;13.32;;;14.00;99.90;;;;;;5319222;23;20596;-86
2022/09/25 21:34:44;;;;;;;;;;;14.00;99.90;;;;;;4842385;29;20045;-86
2022/09/25 21:37:51;;;;;;;21.20;11.40;;;13.90;99.90;;;;;;4889519;29;19958;-86
2022/09/25 21:41:13;;;;;;;18.88;11.48;;;13.90;99.90;;;;;;4855735;29;20042;-87
2022/09/25 22:08:57;;;;;;;16.35;8.25;;;13.80;99.90;;;;;;2641025;23;20305;-86
2022/09/25 22:11:46;;;;;;;13.23;7.28;;;13.90;99.90;;;;;;4977874;24;20112;-85
2022/09/25 22:14:21;;;;;;;13.60;6.90;;;13.80;99.90;;;;;;5256279;23;20057;-85
2022/09/25 22:16:51;;;;;;;13.70;6.95;;;13.80;99.90;;;;;;4873276;29;20048;-85
2022/09/25 22:19:45;;;;;;;11.90;6.97;;;13.80;99.90;;;;;;4854142;29;20046;-86
2022/09/25 22:22:17;;;;;;;15.50;7.38;;;13.90;99.90;;;;;;4848873;29;20133;-85
2022/09/25 22:24:47;;;;;;;13.98;7.90;;;13.90;99.90;;;;;;4833880;29;20054;-86
2022/09/25 22:27:20;;;;;;;13.70;7.03;;;13.80;99.90;;;;;;4834132;29;20049;-85
2022/09/25 22:29:49;;;;;;;14.98;8.07;;;13.80;99.90;;;;;;4854335;29;20042;-85
2022/09/25 22:32:21;;;;;;;13.10;7.60;;;13.90;99.90;;;;;;4831457;29;20058;-85
2022/09/25 22:35:11;;;;;;;12.68;7.50;;;13.90;99.90;;;;;;4840108;29;20050;-85
2022/09/25 22:38:13;;;;;;;14.50;8.10;;;13.90;99.90;;;;;;4826644;29;20047;-86
2022/09/25 23:44:07;;;;;;;20.35;10.32;;;13.70;99.90;;;;;;4859211;29;20386;-85
2022/09/25 23:46:43;;;;;;;19.67;10.10;;;13.70;99.90;;;;;;4840979;29;20061;-86
2022/09/25 23:49:35;;;;;;;18.88;10.45;;;13.70;99.90;;;;;;5370328;24;20055;-85
2022/09/25 23:52:39;;;;;;;16.83;9.88;;;13.70;99.90;;;;;;5076710;24;20074;-86
2022/09/25 23:55:41;;;;;;;15.88;9.57;;;13.60;99.90;;;;;;4777352;30;20048;-86
2022/09/25 23:58:21;;;;;;;16.98;9.63;;;13.70;99.90;;;;;;4760139;30;20059;-86
